Time;durP1;ratioP1;P1;durP2;ratioP2;P2;SDS_P1;SDS_P2;PMS_P1;PMS_P2;Temp;Humidity;BMP_temperature;BMP_pressure;BME280_temperature;BME280_humidity;BME280_pressure;Samples;Min_cycle;Max_cycle;Signal;HPM_P1;HPM_P2
2022/08/19 00:02:23;;;;;;;;;;;;;;;23.21;66.66;100178.38;4417186;32;20009;-69
2022/08/19 00:04:52;;;;;;;;;;;;;;;23.24;66.20;100180.19;4419519;32;19989;-69
2022/08/19 00:07:18;;;;;;;;;;;;;;;23.29;66.31;100183.00;4417524;32;20008;-69
2022/08/19 00:09:44;;;;;;;;;;;;;;;23.43;65.68;100166.66;4418723;32;19975;-69
2022/08/19 00:12:10;;;;;;;;;;;;;;;23.43;65.87;100169.53;4420336;32;19973;-69
2022/08/19 00:14:36;;;;;;;;;;;;;;;23.40;65.45;100165.66;4416466;32;19961;-69
2022/08/19 00:17:03;;;;;;;;;;;;;;;23.40;65.58;100177.13;4418349;32;19997;-69
2022/08/19 00:19:29;;;;;;;;;;;;;;;23.42;65.45;100176.59;4416589;32;20051;-69
2022/08/19 00:21:56;;;;;;;;;;;;;;;23.51;64.52;100181.97;4419251;32;20473;-69
2022/08/19 00:24:22;;;;;;;;;;;;;;;23.54;64.89;100180.88;4418438;32;20245;-69
2022/08/19 00:26:48;;;;;;;;;;;;;;;23.71;64.29;100186.41;4417531;32;19972;-69
2022/08/19 00:29:15;;;;;;;;;;;;;;;23.42;65.22;100185.22;4416840;32;21118;-69
2022/08/19 00:31:42;;;;;;;;;;;;;;;23.59;64.48;100193.63;4418958;32;19969;-69
2022/08/19 00:34:08;;;;;;;;;;;;;;;23.42;62.70;100208.19;4420578;32;20393;-69
2022/08/19 00:36:34;;;;;;;;;;;;;;;23.50;61.06;100224.25;4419295;32;19983;-69
2022/08/19 00:39:01;;;;;;;;;;;;;;;23.25;56.33;100222.72;4419024;32;19960;-69
2022/08/19 00:41:27;;;;;;;;;;;;;;;23.01;55.35;100222.69;4420452;32;20313;-69
2022/08/19 00:43:59;;;;;;;;;;;;;;;22.86;55.06;100227.28;4416244;32;20406;-69
2022/08/19 00:46:27;;;;;;;;;;;;;;;22.68;54.55;100237.34;4416583;32;20247;-69
2022/08/19 00:48:54;;;;;;;;;;;;;;;22.68;54.54;100236.56;4415176;32;19971;-69
2022/08/19 00:51:20;;;;;;;;;;;;;;;22.56;54.41;100232.25;4415920;32;19946;-69
2022/08/19 00:53:46;;;;;;;;;;;;;;;22.59;53.86;100228.31;4418471;32;20009;-69
2022/08/19 00:56:11;;;;;;;;;;;;;;;22.46;54.22;100228.13;4419317;32;19988;-69
2022/08/19 00:58:37;;;;;;;;;;;;;;;22.57;54.45;100231.72;4415836;32;20016;-69
2022/08/19 01:01:08;;;;;;;;;;;;;;;22.61;54.07;100231.44;4417389;32;20398;-69
2022/08/19 01:03:52;;;;;;;;;;;;;;;22.65;53.94;100232.69;4417993;32;19995;-69
2022/08/19 01:06:18;;;;;;;;;;;;;;;22.69;53.46;100227.44;4419042;32;20201;-69
2022/08/19 01:08:43;;;;;;;;;;;;;;;22.58;53.51;100235.38;4417795;32;20389;-69
2022/08/19 01:11:09;;;;;;;;;;;;;;;22.70;53.08;100243.31;4420270;32;19957;-69
2022/08/19 01:13:35;;;;;;;;;;;;;;;22.74;53.28;100243.03;4420222;32;19963;-69
2022/08/19 01:16:03;;;;;;;;;;;;;;;22.77;52.57;100237.00;4417301;32;19953;-69
2022/08/19 01:18:29;;;;;;;;;;;;;;;22.76;52.12;100241.19;4418666;32;20304;-69
2022/08/19 01:20:56;;;;;;;;;;;;;;;22.70;51.99;100234.72;4418967;32;20017;-69
2022/08/19 01:23:42;;;;;;;;;;;;;;;22.73;52.26;100238.62;4420007;32;19957;-69
2022/08/19 01:26:09;;;;;;;;;;;;;;;22.66;52.38;100237.09;4405021;32;20005;-69
2022/08/19 01:28:35;;;;;;;;;;;;;;;22.62;51.73;100236.63;4418173;32;19984;-69
2022/08/19 01:31:02;;;;;;;;;;;;;;;22.53;51.89;100245.56;4418517;32;20012;-69
2022/08/19 01:33:27;;;;;;;;;;;;;;;22.48;51.15;100254.16;4418702;32;19992;-69
2022/08/19 01:35:53;;;;;;;;;;;;;;;22.43;50.90;100252.88;4417787;32;20040;-69
2022/08/19 01:38:21;;;;;;;;;;;;;;;22.49;50.88;100256.50;4418739;32;20000;-69
2022/08/19 01:40:47;;;;;;;;;;;;;;;22.35;51.12;100265.47;4417890;32;20000;-69
2022/08/19 01:43:13;;;;;;;;;;;;;;;22.23;51.53;100261.91;4417597;32;20480;-69
2022/08/19 01:45:39;;;;;;;;;;;;;;;22.11;51.66;100256.75;4417718;32;20332;-69
2022/08/19 01:48:05;;;;;;;;;;;;;;;22.03;52.00;100265.13;4418421;32;20317;-69
2022/08/19 01:50:31;;;;;;;;;;;;;;;21.92;52.45;100258.69;4419561;32;20284;-69
2022/08/19 01:52:59;;;;;;;;;;;;;;;21.92;52.86;100258.69;4418643;32;20052;-69
2022/08/19 01:55:25;;;;;;;;;;;;;;;21.90;53.08;100244.13;4417695;32;20004;-69
2022/08/19 01:57:53;;;;;;;;;;;;;;;21.87;52.92;100243.06;4418151;32;20299;-69
2022/08/19 02:00:21;;;;;;;;;;;;;;;21.66;53.66;100245.50;4418555;32;20396;-69
2022/08/19 02:02:46;;;;;;;;;;;;;;;21.54;53.70;100248.94;4422728;32;19950;-69
2022/08/19 02:05:12;;;;;;;;;;;;;;;21.40;54.07;100258.59;4421451;32;20348;-66
2022/08/19 02:07:38;;;;;;;;;;;;;;;21.32;54.31;100257.56;4420343;32;20514;-68
2022/08/19 02:10:05;;;;;;;;;;;;;;;21.19;54.43;100261.00;4419009;32;20364;-69
2022/08/19 02:12:31;;;;;;;;;;;;;;;20.93;55.26;100254.75;4425991;32;20387;-65
2022/08/19 02:14:56;;;;;;;;;;;;;;;20.86;55.75;100263.87;4420990;32;19961;-64
2022/08/19 02:17:22;;;;;;;;;;;;;;;20.94;55.55;100275.56;4422804;32;19968;-66
2022/08/19 02:19:48;;;;;;;;;;;;;;;20.86;55.88;100275.31;4422420;32;19965;-66
2022/08/19 02:22:14;;;;;;;;;;;;;;;20.93;55.70;100277.63;4422239;32;20008;-66
2022/08/19 02:24:40;;;;;;;;;;;;;;;20.97;55.84;100280.28;4421903;32;19971;-65
2022/08/19 02:27:06;;;;;;;;;;;;;;;20.95;55.90;100288.59;4420298;32;21309;-64
2022/08/19 02:29:31;;;;;;;;;;;;;;;20.91;55.81;100285.19;4418471;32;20004;-65
2022/08/19 02:31:57;;;;;;;;;;;;;;;20.67;56.42;100282.84;4422721;32;19968;-64
2022/08/19 02:34:24;;;;;;;;;;;;;;;20.69;56.52;100288.84;4421872;32;19972;-64
2022/08/19 02:36:51;;;;;;;;;;;;;;;20.57;56.87;100292.19;4421544;32;19992;-65
2022/08/19 02:39:16;;;;;;;;;;;;;;;20.66;56.30;100286.22;4420525;32;20401;-68
2022/08/19 02:41:41;;;;;;;;;;;;;;;20.66;56.45;100284.16;4423440;32;20271;-65
2022/08/19 02:44:07;;;;;;;;;;;;;;;20.59;56.36;100292.47;4419984;32;20006;-67
2022/08/19 02:46:33;;;;;;;;;;;;;;;20.49;55.86;100286.22;4420202;32;20292;-66
2022/08/19 02:49:01;;;;;;;;;;;;;;;20.41;56.07;100278.66;4419982;32;19985;-68
2022/08/19 02:51:29;;;;;;;;;;;;;;;20.23;56.28;100282.00;4421118;32;20001;-66
2022/08/19 02:53:55;;;;;;;;;;;;;;;20.30;55.97;100290.06;4421650;32;19997;-68
2022/08/19 02:56:21;;;;;;;;;;;;;;;20.29;55.79;100289.31;4419069;32;19975;-67
2022/08/19 02:58:48;;;;;;;;;;;;;;;20.19;56.33;100296.53;4419571;32;20406;-66
2022/08/19 03:01:31;;;;;;;;;;;;;;;20.31;55.78;100297.38;4421351;32;19958;-66
2022/08/19 03:03:57;;;;;;;;;;;;;;;20.31;55.57;100298.13;4423014;32;20007;-68
2022/08/19 03:06:23;;;;;;;;;;;;;;;20.16;55.94;100311.87;4417323;32;19954;-65
2022/08/19 03:08:49;;;;;;;;;;;;;;;20.45;55.37;100307.78;4419615;32;19972;-66
2022/08/19 03:13:51;;;;;;;;;;;;;;;21.12;53.32;100315.13;3957577;32;15745561;-65
2022/08/19 03:16:18;;;;;;;;;;;;;;;21.12;53.32;100315.13;4437465;32;20293;-65
2022/08/19 03:18:44;;;;;;;;;;;;;;;20.72;54.03;100307.03;4432331;32;19993;-66
2022/08/19 03:21:09;;;;;;;;;;;;;;;20.65;53.29;100311.16;4434357;32;20007;-66
2022/08/19 03:23:35;;;;;;;;;;;;;;;20.47;54.07;100305.97;4436411;32;20444;-66
2022/08/19 03:26:04;;;;;;;;;;;;;;;20.66;53.84;100312.75;4433457;32;19988;-67
2022/08/19 03:28:30;;;;;;;;;;;;;;;20.71;53.64;100320.53;4432536;32;19949;-66
2022/08/19 03:31:00;;;;;;;;;;;;;;;20.53;54.19;100314.56;4432396;32;19981;-67
2022/08/19 03:33:27;;;;;;;;;;;;;;;20.53;54.09;100311.69;4434213;32;20018;-69
2022/08/19 03:36:12;;;;;;;;;;;;;;;20.47;54.38;100316.62;4434916;32;19984;-65
2022/08/19 03:38:40;;;;;;;;;;;;;;;20.38;54.45;100328.28;4435772;32;20000;-67
2022/08/19 03:41:12;;;;;;;;;;;;;;;20.46;54.29;100324.41;4435389;32;19953;-70
2022/08/19 03:43:39;;;;;;;;;;;;;;;20.34;54.47;100322.06;4434760;32;19954;-66
2022/08/19 03:46:06;;;;;;;;;;;;;;;20.26;54.68;100312.41;4437905;32;20379;-66
2022/08/19 03:48:33;;;;;;;;;;;;;;;20.27;54.51;100331.91;4435179;32;20205;-68
2022/08/19 03:50:59;;;;;;;;;;;;;;;20.14;54.93;100333.66;4435100;32;19993;-66
2022/08/19 03:53:27;;;;;;;;;;;;;;;20.15;54.98;100336.00;4432731;32;20303;-66
2022/08/19 03:55:53;;;;;;;;;;;;;;;20.07;55.29;100334.12;4433327;32;19953;-65
2022/08/19 03:58:19;;;;;;;;;;;;;;;19.91;55.73;100335.63;4434794;32;20057;-69
2022/08/19 04:00:44;;;;;;;;;;;;;;;19.75;55.95;100333.47;4432198;32;20341;-66
2022/08/19 04:03:10;;;;;;;;;;;;;;;19.68;56.22;100328.25;4432962;32;19950;-66
2022/08/19 04:05:37;;;;;;;;;;;;;;;19.64;56.44;100322.78;4431495;32;20022;-69
2022/08/19 04:08:03;;;;;;;;;;;;;;;19.47;56.93;100327.63;4431904;32;20567;-68
2022/08/19 04:10:29;;;;;;;;;;;;;;;19.46;56.97;100331.00;4435937;32;20035;-66
2022/08/19 04:12:59;;;;;;;;;;;;;;;19.55;56.68;100330.78;4433784;32;20927;-69
2022/08/19 04:15:25;;;;;;;;;;;;;;;19.57;56.62;100343.25;4433223;32;19984;-66
2022/08/19 04:17:51;;;;;;;;;;;;;;;19.54;56.72;100337.75;4433885;32;20051;-69
2022/08/19 04:20:17;;;;;;;;;;;;;;;19.57;56.61;100334.69;4434213;32;20054;-67
2022/08/19 04:22:42;;;;;;;;;;;;;;;19.42;57.03;100350.44;4434884;32;20357;-66
2022/08/19 04:25:08;;;;;;;;;;;;;;;19.36;57.26;100358.94;4422745;32;19971;-65
2022/08/19 04:27:34;;;;;;;;;;;;;;;19.47;56.94;100361.88;4422236;32;19961;-67
2022/08/19 04:30:00;;;;;;;;;;;;;;;19.40;57.04;100367.25;4424594;32;19987;-69
2022/08/19 04:32:26;;;;;;;;;;;;;;;19.43;56.83;100357.69;4422014;32;20001;-65
2022/08/19 04:34:52;;;;;;;;;;;;;;;19.33;57.29;100353.47;4420781;32;20058;-66
2022/08/19 04:37:17;;;;;;;;;;;;;;;19.30;57.67;100355.25;4423767;32;20705;-68
2022/08/19 04:42:43;;;;;;;;;;;;;;;19.33;57.48;100362.03;4425301;32;20419;-66
2022/08/19 04:45:11;;;;;;;;;;;;;;;19.27;57.68;100372.63;4424453;32;20007;-66
2022/08/19 04:47:37;;;;;;;;;;;;;;;19.24;57.94;100376.47;4423083;32;20255;-68
2022/08/19 04:50:03;;;;;;;;;;;;;;;19.18;58.02;100373.53;4420719;32;19964;-65
2022/08/19 04:52:31;;;;;;;;;;;;;;;19.16;58.24;100381.06;4423772;32;19992;-66
2022/08/19 04:54:58;;;;;;;;;;;;;;;19.14;58.56;100384.41;4422032;32;20213;-67
2022/08/19 04:57:24;;;;;;;;;;;;;;;19.08;58.75;100383.56;4407257;32;19968;-67
2022/08/19 04:59:53;;;;;;;;;;;;;;;19.05;58.85;100387.44;4422748;32;20335;-67
2022/08/19 05:02:19;;;;;;;;;;;;;;;19.07;59.09;100392.63;4423486;32;20000;-65
2022/08/19 05:04:44;;;;;;;;;;;;;;;19.00;59.39;100401.66;4422443;32;20004;-68
2022/08/19 05:07:10;;;;;;;;;;;;;;;18.94;59.61;100400.81;4423357;32;20298;-68
2022/08/19 05:09:35;;;;;;;;;;;;;;;18.87;59.76;100404.13;4421626;32;19964;-69
2022/08/19 05:12:01;;;;;;;;;;;;;;;18.89;59.74;100401.53;4423664;32;20403;-65
2022/08/19 05:14:27;;;;;;;;;;;;;;;18.90;59.84;100398.19;4421910;32;19982;-65
2022/08/19 05:16:52;;;;;;;;;;;;;;;18.81;60.10;100406.16;4422192;32;20041;-66
2022/08/19 05:24:48;;;;;;;;;;;;;;;18.76;59.98;100418.25;4424465;32;19957;-65
2022/08/19 05:27:14;;;;;;;;;;;;;;;18.82;60.16;100419.09;4426364;32;20805;-66
2022/08/19 05:29:39;;;;;;;;;;;;;;;18.85;59.47;100424.59;4420765;32;20002;-67
2022/08/19 05:32:09;;;;;;;;;;;;;;;18.84;59.64;100419.41;4422536;32;19991;-68
2022/08/19 05:34:35;;;;;;;;;;;;;;;18.77;60.00;100426.31;4423385;32;20312;-67
2022/08/19 05:37:05;;;;;;;;;;;;;;;18.82;59.43;100428.44;4421724;32;19969;-68
2022/08/19 05:39:32;;;;;;;;;;;;;;;18.77;59.32;100437.72;4421215;32;19957;-69
2022/08/19 05:41:58;;;;;;;;;;;;;;;18.87;59.15;100438.34;4420401;32;19953;-67
2022/08/19 05:44:25;;;;;;;;;;;;;;;18.89;59.48;100438.59;4422563;32;19990;-68
2022/08/19 05:46:52;;;;;;;;;;;;;;;18.98;59.17;100441.28;4420976;32;19979;-65
2022/08/19 05:49:18;;;;;;;;;;;;;;;18.96;58.99;100438.19;4422810;32;19986;-67
2022/08/19 05:51:45;;;;;;;;;;;;;;;18.97;58.91;100443.38;4423357;32;20014;-65
2022/08/19 05:54:13;;;;;;;;;;;;;;;19.09;58.76;100453.59;4420390;32;19958;-66
2022/08/19 05:56:39;;;;;;;;;;;;;;;19.16;58.65;100449.50;4422541;32;19964;-68
2022/08/19 05:59:08;;;;;;;;;;;;;;;19.19;58.56;100437.88;4423013;32;20040;-68
2022/08/19 06:01:35;;;;;;;;;;;;;;;19.17;58.72;100449.00;4419594;32;20012;-68
2022/08/19 06:04:01;;;;;;;;;;;;;;;19.14;58.70;100447.16;4420639;32;19985;-69
2022/08/19 06:06:27;;;;;;;;;;;;;;;19.14;58.36;100440.66;4421483;32;19964;-68
2022/08/19 06:08:52;;;;;;;;;;;;;;;19.24;58.17;100442.06;4421994;32;20220;-66
2022/08/19 06:13:55;;;;;;;;;;;;;;;19.92;56.65;100445.72;3958269;32;15722535;-68
2022/08/19 06:16:22;;;;;;;;;;;;;;;19.92;56.65;100445.72;4431658;32;19965;-68
2022/08/19 06:18:56;;;;;;;;;;;;;;;19.50;56.93;100443.63;4432417;32;19985;-67
2022/08/19 06:21:24;;;;;;;;;;;;;;;19.55;56.83;100448.56;4433221;32;19949;-68
2022/08/19 06:23:51;;;;;;;;;;;;;;;19.71;56.61;100450.00;4432762;32;19949;-68
2022/08/19 06:26:18;;;;;;;;;;;;;;;19.77;56.45;100457.31;4437679;32;20438;-66
2022/08/19 06:28:46;;;;;;;;;;;;;;;19.86;56.34;100450.63;4432405;32;20202;-67
2022/08/19 06:31:14;;;;;;;;;;;;;;;19.75;55.85;100461.97;4434632;32;19961;-66
2022/08/19 06:33:40;;;;;;;;;;;;;;;19.86;55.81;100455.53;4433653;32;19977;-67
2022/08/19 06:36:07;;;;;;;;;;;;;;;20.02;54.78;100449.16;4432762;32;19954;-67
2022/08/19 06:38:33;;;;;;;;;;;;;;;20.07;54.45;100457.78;4433981;32;19957;-67
2022/08/19 06:41:01;;;;;;;;;;;;;;;20.16;53.91;100463.31;4434481;32;20443;-67
2022/08/19 06:43:26;;;;;;;;;;;;;;;20.13;53.99;100461.47;4435370;32;19999;-66
2022/08/19 06:45:52;;;;;;;;;;;;;;;20.02;53.89;100461.38;4433935;32;19961;-65
2022/08/19 06:48:18;;;;;;;;;;;;;;;20.10;53.94;100458.81;4433225;32;19993;-69
2022/08/19 06:50:44;;;;;;;;;;;;;;;20.11;53.72;100457.50;4429197;32;19972;-65
2022/08/19 06:53:09;;;;;;;;;;;;;;;20.12;53.52;100457.03;4430709;32;19953;-65
2022/08/19 06:55:36;;;;;;;;;;;;;;;19.97;53.67;100459.25;4432148;32;20001;-69
2022/08/19 06:58:03;;;;;;;;;;;;;;;20.05;53.75;100465.25;4416577;32;20341;-66
2022/08/19 07:00:29;;;;;;;;;;;;;;;20.12;53.81;100471.31;4432481;32;19966;-68
2022/08/19 07:02:54;;;;;;;;;;;;;;;20.21;53.13;100479.69;4429902;32;19988;-65
2022/08/19 07:05:20;;;;;;;;;;;;;;;20.08;53.37;100472.81;4434541;32;20002;-68
2022/08/19 07:07:46;;;;;;;;;;;;;;;20.13;53.22;100478.63;4433666;32;19992;-67
2022/08/19 07:10:12;;;;;;;;;;;;;;;20.34;52.67;100479.25;4434591;32;19990;-68
2022/08/19 07:12:38;;;;;;;;;;;;;;;20.27;52.41;100485.41;4436051;32;20034;-67
2022/08/19 07:15:05;;;;;;;;;;;;;;;20.33;52.62;100478.44;4433337;32;20385;-68
2022/08/19 07:17:31;;;;;;;;;;;;;;;20.40;51.88;100474.34;4431765;32;20263;-67
2022/08/19 07:19:56;;;;;;;;;;;;;;;20.51;51.64;100485.78;4432565;32;19968;-69
2022/08/19 07:22:22;;;;;;;;;;;;;;;20.67;51.31;100473.63;4433175;32;19984;-67
2022/08/19 07:24:48;;;;;;;;;;;;;;;20.79;50.65;100483.81;4423676;32;20007;-65
2022/08/19 07:27:14;;;;;;;;;;;;;;;20.90;50.80;100478.91;4420979;32;20201;-65
2022/08/19 07:29:40;;;;;;;;;;;;;;;21.01;50.50;100483.91;4422104;32;19997;-66
2022/08/19 07:32:06;;;;;;;;;;;;;;;20.92;49.76;100486.97;4420955;32;19965;-67
2022/08/19 07:34:36;;;;;;;;;;;;;;;21.18;49.60;100484.75;4420453;32;20522;-65
2022/08/19 07:37:03;;;;;;;;;;;;;;;21.09;49.67;100497.22;4421567;32;19971;-68
2022/08/19 07:39:30;;;;;;;;;;;;;;;21.17;49.38;100495.41;4405484;32;21041;-65
2022/08/19 07:41:57;;;;;;;;;;;;;;;21.31;49.01;100488.66;4424303;32;19953;-66
2022/08/19 07:44:24;;;;;;;;;;;;;;;21.20;49.15;100491.50;4423002;32;19949;-66
2022/08/19 07:46:52;;;;;;;;;;;;;;;21.50;48.77;100500.38;4421486;32;20009;-67
2022/08/19 07:49:19;;;;;;;;;;;;;;;21.72;47.90;100499.59;4420224;32;20026;-65
2022/08/19 07:51:47;;;;;;;;;;;;;;;21.64;47.85;100494.37;4422246;32;19993;-65
2022/08/19 07:54:13;;;;;;;;;;;;;;;21.62;47.20;100501.94;4419519;32;19967;-65
2022/08/19 07:56:39;;;;;;;;;;;;;;;21.70;47.47;100498.03;4425422;32;19954;-68
2022/08/19 07:59:05;;;;;;;;;;;;;;;21.59;46.57;100512.38;4417636;32;20005;-65
2022/08/19 08:01:30;;;;;;;;;;;;;;;21.50;47.17;100509.75;4418608;32;19941;-67
2022/08/19 08:09:32;;;;;;;;;;;;;;;22.04;45.66;100518.87;4419248;32;20017;-67
2022/08/19 08:12:01;;;;;;;;;;;;;;;22.09;44.80;100520.94;4421663;32;20001;-67
2022/08/19 08:14:28;;;;;;;;;;;;;;;22.14;44.87;100519.38;4421894;32;19997;-69
2022/08/19 08:16:54;;;;;;;;;;;;;;;22.12;44.51;100524.87;4419160;32;19989;-69
2022/08/19 08:19:21;;;;;;;;;;;;;;;22.59;44.35;100535.19;4423663;32;20011;-69
2022/08/19 08:21:48;;;;;;;;;;;;;;;22.49;44.24;100528.16;4421706;32;20042;-67
2022/08/19 08:24:14;;;;;;;;;;;;;;;22.62;44.02;100537.81;4421888;32;19968;-69
2022/08/19 08:26:40;;;;;;;;;;;;;;;22.95;42.83;100531.16;4421020;32;19993;-65
2022/08/19 08:29:10;;;;;;;;;;;;;;;23.00;42.32;100538.94;4421055;32;21022;-66
2022/08/19 08:31:35;;;;;;;;;;;;;;;22.61;42.51;100535.47;4420208;32;20007;-67
2022/08/19 08:34:01;;;;;;;;;;;;;;;22.24;43.17;100543.59;4422523;32;20317;-65
2022/08/19 08:36:27;;;;;;;;;;;;;;;21.94;43.82;100539.72;4422441;32;19990;-67
2022/08/19 08:38:52;;;;;;;;;;;;;;;22.06;43.72;100535.56;4421220;32;20264;-67
2022/08/19 08:43:56;;;;;;;;;;;;;;;22.29;43.02;100537.06;3948623;32;15726498;-69
2022/08/19 08:46:26;;;;;;;;;;;;;;;22.64;42.64;100532.31;4419160;32;20433;-68
2022/08/19 08:48:56;;;;;;;;;;;;;;;22.86;42.16;100525.72;4419935;32;20392;-70
2022/08/19 08:51:26;;;;;;;;;;;;;;;23.26;41.42;100527.88;4419403;32;19989;-67
2022/08/19 08:53:51;;;;;;;;;;;;;;;23.45;40.52;100523.03;4418340;32;19981;-66
2022/08/19 08:56:18;;;;;;;;;;;;;;;23.58;40.44;100531.00;4420259;32;19996;-69
2022/08/19 09:01:19;;;;;;;;;;;;;;;24.80;37.43;100540.84;3974699;32;15725643;-69
2022/08/19 09:03:45;;;;;;;;;;;;;;;24.80;37.43;100540.84;4466157;32;20824;-67
2022/08/19 09:11:36;;;;;;;;;;;;;;;24.71;36.02;100546.19;3972142;31;15716605;-67
2022/08/19 09:16:40;;;;;;;;;;;;;;;24.17;37.72;100549.09;3962950;32;15723548;-70
2022/08/19 09:19:07;;;;;;;;;;;;;;;24.35;36.85;100554.12;4441601;32;19949;-70
2022/08/19 09:21:34;;;;;;;;;;;;;;;24.68;35.47;100550.94;4433698;32;20445;-67
2022/08/19 09:24:00;;;;;;;;;;;;;;;25.26;34.75;100546.25;4440351;32;20076;-67
2022/08/19 09:26:26;;;;;;;;;;;;;;;25.10;35.36;100549.34;4436650;32;19990;-68
2022/08/19 09:28:52;;;;;;;;;;;;;;;24.93;35.02;100554.53;4431750;32;20325;-68
2022/08/19 09:31:19;;;;;;;;;;;;;;;24.64;35.63;100553.31;4435399;32;19992;-69
2022/08/19 09:33:45;;;;;;;;;;;;;;;24.84;34.82;100555.69;4434535;32;20000;-70
2022/08/19 09:36:12;;;;;;;;;;;;;;;24.95;34.70;100555.53;4438228;32;20587;-69
2022/08/19 09:38:40;;;;;;;;;;;;;;;25.30;33.94;100555.34;4435161;32;19980;-67
2022/08/19 09:41:07;;;;;;;;;;;;;;;25.69;33.23;100559.75;4431520;32;20016;-67
2022/08/19 09:43:36;;;;;;;;;;;;;;;25.77;32.37;100555.69;4437560;32;20055;-67
2022/08/19 09:46:05;;;;;;;;;;;;;;;25.57;33.40;100553.41;4432600;32;19965;-67
2022/08/19 09:48:31;;;;;;;;;;;;;;;25.55;33.28;100555.28;4433332;32;20043;-68
2022/08/19 09:51:07;;;;;;;;;;;;;;;25.29;33.37;100547.25;4435997;32;19964;-68
2022/08/19 09:53:34;;;;;;;;;;;;;;;25.34;33.67;100543.53;4436098;32;20315;-66
2022/08/19 09:56:00;;;;;;;;;;;;;;;25.85;32.96;100547.19;4439269;32;19982;-66
2022/08/19 09:58:27;;;;;;;;;;;;;;;26.23;32.53;100545.78;4434478;32;20009;-67
2022/08/19 10:00:54;;;;;;;;;;;;;;;26.63;31.76;100547.41;4434840;32;19999;-68
2022/08/19 10:03:20;;;;;;;;;;;;;;;26.62;31.34;100558.16;4436325;32;20002;-66
2022/08/19 10:05:48;;;;;;;;;;;;;;;26.80;30.83;100559.37;4435312;32;20012;-71
2022/08/19 10:08:15;;;;;;;;;;;;;;;26.54;30.95;100568.00;4434403;32;20334;-69
2022/08/19 10:10:43;;;;;;;;;;;;;;;25.78;32.21;100562.25;4434878;32;20401;-66
2022/08/19 10:13:09;;;;;;;;;;;;;;;25.57;32.41;100569.91;4437171;32;20029;-67
2022/08/19 10:15:34;;;;;;;;;;;;;;;25.30;33.19;100569.75;4435637;32;20508;-66
2022/08/19 10:18:00;;;;;;;;;;;;;;;25.28;32.30;100557.22;4435732;32;19982;-67
2022/08/19 10:20:25;;;;;;;;;;;;;;;25.37;32.36;100557.62;4430834;32;20358;-67
2022/08/19 10:22:51;;;;;;;;;;;;;;;25.37;32.88;100559.72;4434850;32;19972;-65
2022/08/19 10:25:17;;;;;;;;;;;;;;;25.67;32.47;100560.31;4436595;32;20370;-66
2022/08/19 10:27:42;;;;;;;;;;;;;;;25.99;31.61;100554.59;4426481;32;20033;-67
2022/08/19 10:30:09;;;;;;;;;;;;;;;26.14;31.20;100549.84;4422785;32;20347;-67
2022/08/19 10:32:35;;;;;;;;;;;;;;;26.23;30.99;100557.31;4424650;32;20021;-66
2022/08/19 10:35:01;;;;;;;;;;;;;;;26.32;29.63;100559.78;4423295;32;20383;-67
2022/08/19 10:37:26;;;;;;;;;;;;;;;26.19;30.00;100559.72;4426072;32;20008;-69
2022/08/19 10:39:52;;;;;;;;;;;;;;;26.66;29.51;100566.50;4421955;32;20048;-66
2022/08/19 10:42:18;;;;;;;;;;;;;;;27.03;29.07;100558.34;4423254;32;20027;-66
2022/08/19 10:44:44;;;;;;;;;;;;;;;27.56;28.16;100559.03;4417703;32;19993;-66
2022/08/19 10:47:10;;;;;;;;;;;;;;;27.83;28.15;100560.47;4426849;32;20004;-66
2022/08/19 10:52:33;;;;;;;;;;;;;;;28.17;27.60;100552.53;4425453;32;19964;-65
2022/08/19 10:52:36;;;;;;;;;;;;;;;28.46;27.23;100562.81;4423876;32;20004;-67
2022/08/19 10:57:49;;;;;;;;;;;;;;;28.52;27.76;100560.56;4426897;32;19963;-69
2022/08/19 11:00:15;;;;;;;;;;;;;;;28.99;26.96;100558.13;4421487;32;19996;-66
2022/08/19 11:02:41;;;;;;;;;;;;;;;29.45;26.54;100561.25;4424660;32;19997;-68
2022/08/19 11:05:09;;;;;;;;;;;;;;;28.51;26.95;100569.81;4425161;32;19988;-66
2022/08/19 11:07:35;;;;;;;;;;;;;;;27.56;28.80;100564.81;4423350;32;19985;-66
2022/08/19 11:10:03;;;;;;;;;;;;;;;27.12;29.75;100575.22;4423134;32;19980;-66
2022/08/19 11:12:29;;;;;;;;;;;;;;;26.89;30.03;100577.03;4423429;32;20347;-67
2022/08/19 11:14:55;;;;;;;;;;;;;;;26.35;30.98;100573.09;4416053;32;19984;-66
2022/08/19 11:17:23;;;;;;;;;;;;;;;26.25;31.43;100554.63;4422372;32;20333;-68
2022/08/19 11:19:49;;;;;;;;;;;;;;;25.84;32.15;100566.59;4423186;32;19995;-66
2022/08/19 11:22:15;;;;;;;;;;;;;;;25.74;32.26;100559.66;4425519;32;20025;-66
2022/08/19 11:24:41;;;;;;;;;;;;;;;26.14;30.85;100549.09;4427697;32;19958;-66
2022/08/19 11:27:08;;;;;;;;;;;;;;;27.05;29.11;100547.03;4424274;32;19975;-68
2022/08/19 11:29:34;;;;;;;;;;;;;;;28.11;26.94;100549.00;4418149;32;20005;-66
2022/08/19 11:32:03;;;;;;;;;;;;;;;27.83;26.86;100562.59;4424063;32;20004;-66
2022/08/19 11:34:29;;;;;;;;;;;;;;;27.53;27.81;100551.47;4424403;32;19963;-66
2022/08/19 11:36:58;;;;;;;;;;;;;;;26.94;29.41;100558.03;4427870;32;19993;-65
2022/08/19 11:39:24;;;;;;;;;;;;;;;27.39;29.12;100552.09;4421801;32;20327;-67
2022/08/19 11:41:50;;;;;;;;;;;;;;;28.29;27.92;100550.13;4426684;32;19995;-68
2022/08/19 11:44:16;;;;;;;;;;;;;;;28.57;26.93;100545.16;4422681;32;19993;-68
2022/08/19 11:46:45;;;;;;;;;;;;;;;28.84;26.39;100537.78;4427313;32;20442;-67
2022/08/19 11:49:11;;;;;;;;;;;;;;;29.25;26.18;100545.53;4423245;32;19976;-68
2022/08/19 11:51:37;;;;;;;;;;;;;;;29.70;25.44;100544.94;4424175;32;20310;-69
2022/08/19 11:54:04;;;;;;;;;;;;;;;29.35;25.59;100552.31;4423252;32;19997;-68
2022/08/19 11:56:29;;;;;;;;;;;;;;;29.62;25.34;100552.81;4424618;32;19961;-68
2022/08/19 11:58:56;;;;;;;;;;;;;;;29.82;24.35;100555.56;4422319;32;19996;-66
2022/08/19 12:01:22;;;;;;;;;;;;;;;29.54;25.05;100552.78;4426984;32;19993;-68
2022/08/19 12:03:50;;;;;;;;;;;;;;;29.36;25.41;100550.22;4426984;32;19968;-66
2022/08/19 12:06:17;;;;;;;;;;;;;;;28.97;26.05;100557.91;4423056;32;20005;-67
2022/08/19 12:08:45;;;;;;;;;;;;;;;28.19;27.41;100549.06;4425528;32;20000;-68
2022/08/19 12:11:11;;;;;;;;;;;;;;;28.16;27.71;100574.12;4420458;32;19990;-67
2022/08/19 12:13:38;;;;;;;;;;;;;;;27.76;28.21;100557.50;4428187;32;19949;-67
2022/08/19 12:16:11;;;;;;;;;;;;;;;27.47;29.04;100562.41;4423554;32;20027;-66
2022/08/19 12:18:37;;;;;;;;;;;;;;;27.03;30.04;100561.22;4426095;32;20007;-67
2022/08/19 12:21:03;;;;;;;;;;;;;;;26.82;30.64;100557.47;4422470;32;21212;-68
2022/08/19 12:23:29;;;;;;;;;;;;;;;26.83;30.65;100559.03;4425816;32;20042;-66
2022/08/19 12:25:56;;;;;;;;;;;;;;;26.85;30.74;100555.59;4423927;32;19985;-69
2022/08/19 12:28:23;;;;;;;;;;;;;;;26.92;31.28;100555.72;4427193;32;20311;-69
2022/08/19 12:30:50;;;;;;;;;;;;;;;27.01;31.09;100563.91;4426187;32;20001;-66
2022/08/19 12:33:16;;;;;;;;;;;;;;;27.00;31.37;100567.38;4423811;32;20004;-66
2022/08/19 12:35:46;;;;;;;;;;;;;;;26.64;32.11;100567.03;4423099;32;19958;-67
2022/08/19 12:38:12;;;;;;;;;;;;;;;26.43;32.40;100568.22;4427640;32;19954;-68
2022/08/19 12:40:39;;;;;;;;;;;;;;;26.65;32.10;100568.59;4418681;32;19961;-66
2022/08/19 12:43:05;;;;;;;;;;;;;;;26.76;32.37;100568.38;4426476;32;20677;-66
2022/08/19 12:45:31;;;;;;;;;;;;;;;27.16;31.83;100574.91;4427284;32;19997;-69
2022/08/19 12:47:56;;;;;;;;;;;;;;;26.97;31.71;100575.00;4422248;32;20287;-66
2022/08/19 12:50:22;;;;;;;;;;;;;;;27.12;31.04;100574.47;4424329;32;20011;-67
2022/08/19 12:52:47;;;;;;;;;;;;;;;27.11;31.16;100570.78;4423562;32;19967;-67
2022/08/19 12:55:13;;;;;;;;;;;;;;;27.43;30.60;100566.97;4425789;32;19965;-67
2022/08/19 12:57:39;;;;;;;;;;;;;;;28.01;30.02;100570.31;4422506;32;19992;-65
2022/08/19 13:00:11;;;;;;;;;;;;;;;28.19;29.81;100558.50;4420486;32;19993;-66
2022/08/19 13:02:37;;;;;;;;;;;;;;;28.22;29.17;100556.63;4418239;32;20405;-68
2022/08/19 13:05:04;;;;;;;;;;;;;;;28.39;28.91;100571.41;4422701;32;20319;-69
2022/08/19 13:07:31;;;;;;;;;;;;;;;27.78;29.28;100564.28;4420651;32;20223;-66
2022/08/19 13:09:56;;;;;;;;;;;;;;;28.18;28.96;100559.09;4418890;32;19994;-70